createdAt,value
2019-03-29T00:01:14.001Z,64.03
2019-03-29T00:03:46.667Z,64.21
2019-03-29T00:06:19.776Z,64.20
2019-03-29T00:08:52.674Z,63.93
2019-03-29T00:11:25.241Z,64.27
2019-03-29T00:13:57.708Z,64.45
2019-03-29T00:16:31.150Z,64.49
2019-03-29T00:19:03.766Z,64.27
2019-03-29T00:21:39.726Z,64.25
2019-03-29T00:24:12.416Z,64.29
2019-03-29T00:26:50.869Z,64.41
2019-03-29T00:29:23.752Z,64.66
2019-03-29T00:31:56.692Z,64.65
2019-03-29T00:34:29.298Z,64.88
2019-03-29T00:37:11.122Z,65.19
2019-03-29T00:39:43.837Z,65.06
2019-03-29T00:42:23.041Z,65.32
2019-03-29T00:44:55.917Z,65.93
2019-03-29T00:47:28.406Z,66.11
2019-03-29T00:50:01.055Z,66.41
2019-03-29T00:52:43.007Z,66.88
2019-03-29T00:55:15.845Z,66.97
2019-03-29T00:57:48.403Z,66.58
2019-03-29T01:00:21.148Z,67.06
2019-03-29T01:03:04.293Z,67.34
2019-03-29T01:05:36.833Z,67.06
2019-03-29T01:08:10.542Z,67.65
2019-03-29T01:10:43.524Z,67.92
2019-03-29T01:13:23.296Z,68.42
2019-03-29T01:15:55.648Z,68.55
2019-03-29T01:18:31.324Z,69.11
2019-03-29T01:21:03.777Z,69.53
2019-03-29T01:23:45.285Z,70.05
2019-03-29T01:26:17.894Z,70.78
2019-03-29T01:28:53.892Z,71.44
2019-03-29T01:31:27.914Z,71.73
2019-03-29T01:34:03.542Z,71.87
2019-03-29T01:36:36.924Z,71.44
2019-03-29T01:39:18.199Z,71.29
2019-03-29T01:41:50.743Z,71.05
2019-03-29T01:44:23.280Z,71.20
2019-03-29T01:46:55.908Z,71.60
2019-03-29T01:49:36.176Z,71.63
2019-03-29T01:52:09.018Z,72.19
2019-03-29T01:54:41.466Z,72.75
2019-03-29T01:57:14.029Z,73.42
2019-03-29T01:59:49.330Z,73.86
2019-03-29T02:02:21.886Z,74.43
2019-03-29T02:05:05.812Z,75.13
2019-03-29T02:07:38.474Z,75.62
2019-03-29T02:10:12.665Z,75.82
2019-03-29T02:12:45.353Z,76.01
2019-03-29T02:15:21.154Z,76.20
2019-03-29T02:17:54.153Z,76.75
2019-03-29T02:20:34.602Z,77.10
2019-03-29T02:23:07.643Z,77.59
2019-03-29T02:25:47.985Z,77.95
2019-03-29T02:28:20.425Z,77.96
2019-03-29T02:31:02.546Z,78.28
2019-03-29T02:33:35.216Z,78.55
2019-03-29T02:36:10.570Z,78.17
2019-03-29T02:38:55.295Z,78.36
2019-03-29T02:41:18.972Z,78.51
2019-03-29T02:43:51.939Z,78.71
2019-03-29T02:46:25.695Z,79.22
2019-03-29T02:48:58.753Z,79.82
2019-03-29T02:51:40.825Z,80.74
2019-03-29T02:54:13.651Z,81.63
2019-03-29T02:56:48.873Z,82.52
2019-03-29T02:59:21.406Z,83.29
2019-03-29T03:01:54.045Z,84.13
2019-03-29T03:04:27.026Z,83.92
2019-03-29T03:07:11.826Z,83.12
2019-03-29T03:09:44.392Z,82.36
2019-03-29T03:12:20.092Z,82.53
2019-03-29T03:14:52.726Z,82.59
2019-03-29T03:17:25.284Z,82.26
2019-03-29T03:19:57.749Z,82.18
2019-03-29T03:22:32.780Z,82.43
2019-03-29T03:25:05.401Z,82.97
2019-03-29T03:27:42.392Z,83.56
2019-03-29T03:30:15.398Z,84.01
2019-03-29T03:32:54.209Z,84.48
2019-03-29T03:35:26.891Z,84.88
2019-03-29T03:38:05.525Z,85.45
2019-03-29T03:40:38.181Z,85.86
2019-03-29T03:43:19.445Z,86.41
2019-03-29T03:45:52.110Z,86.69
2019-03-29T03:48:36.002Z,87.08
2019-03-29T03:51:09.137Z,87.44
2019-03-29T03:53:50.350Z,87.57
2019-03-29T03:56:23.336Z,87.93
2019-03-29T03:58:56.572Z,88.34
2019-03-29T04:01:29.497Z,88.92
2019-03-29T04:04:05.045Z,89.26
2019-03-29T04:06:37.619Z,89.99
2019-03-29T04:09:10.919Z,90.77
2019-03-29T04:11:43.441Z,91.36
2019-03-29T04:14:18.823Z,91.46
2019-03-29T04:16:51.249Z,91.69
2019-03-29T04:19:41.209Z,92.47
2019-03-29T04:22:13.694Z,92.53
2019-03-29T04:24:46.165Z,92.80
2019-03-29T04:27:19.627Z,93.18
2019-03-29T04:29:55.151Z,93.43
2019-03-29T04:32:27.712Z,93.23
2019-03-29T04:35:00.469Z,94.36
2019-03-29T04:37:32.907Z,94.28
2019-03-29T04:40:17.703Z,94.41
2019-03-29T04:42:50.255Z,94.53
2019-03-29T04:45:28.861Z,95.79
2019-03-29T04:48:01.353Z,97.54
2019-03-29T04:50:36.762Z,98.47
2019-03-29T04:53:09.329Z,98.72
2019-03-29T04:55:44.846Z,96.75
2019-03-29T04:58:17.372Z,94.73
2019-03-29T05:00:58.600Z,93.49
2019-03-29T05:03:31.233Z,91.79
2019-03-29T05:06:06.614Z,90.98
2019-03-29T05:08:39.100Z,90.02
2019-03-29T05:11:19.834Z,89.59
2019-03-29T05:13:52.354Z,89.59
2019-03-29T05:16:28.069Z,89.20
2019-03-29T05:19:00.529Z,89.12
2019-03-29T05:21:39.464Z,89.08
2019-03-29T05:24:11.970Z,88.94
2019-03-29T05:26:52.793Z,89.12
2019-03-29T05:29:25.447Z,89.73
2019-03-29T05:31:58.009Z,91.90
2019-03-29T05:34:30.591Z,92.29
2019-03-29T05:37:11.468Z,88.96
2019-03-29T05:39:43.885Z,82.09
2019-03-29T05:42:22.348Z,76.19
2019-03-29T05:44:55.111Z,74.37
2019-03-29T05:47:30.862Z,69.19
2019-03-29T05:50:03.462Z,67.77
2019-03-29T05:52:35.995Z,66.73
2019-03-29T05:55:08.786Z,65.04
2019-03-29T05:57:47.484Z,62.53
2019-03-29T06:00:20.827Z,61.49
2019-03-29T06:03:04.226Z,58.75
2019-03-29T06:05:37.000Z,57.81
2019-03-29T06:08:09.580Z,55.21
2019-03-29T06:10:49.085Z,53.46
2019-03-29T06:13:21.171Z,51.25
2019-03-29T06:15:54.696Z,50.80
2019-03-29T06:18:30.395Z,49.18
2019-03-29T06:21:03.859Z,46.53
2019-03-29T06:23:40.217Z,43.53
2019-03-29T06:26:12.830Z,43.01
2019-03-29T06:28:49.579Z,44.30
2019-03-29T06:31:22.312Z,45.56
2019-03-29T06:33:58.916Z,44.99
2019-03-29T06:36:34.096Z,44.32
2019-03-29T06:39:21.167Z,44.03
2019-03-29T06:41:53.370Z,43.51
2019-03-29T06:44:26.297Z,42.89
2019-03-29T06:46:59.552Z,43.55
2019-03-29T06:49:32.171Z,41.99
2019-03-29T06:52:04.574Z,40.40
2019-03-29T06:54:37.372Z,39.51
2019-03-29T06:57:15.891Z,37.34
2019-03-29T06:59:48.621Z,36.09
2019-03-29T07:02:28.678Z,35.14
2019-03-29T07:05:01.332Z,34.19
2019-03-29T07:07:44.429Z,32.83
2019-03-29T07:10:16.727Z,33.04
2019-03-29T07:12:50.178Z,32.61
2019-03-29T07:15:22.968Z,32.60
2019-03-29T07:17:55.610Z,32.14
2019-03-29T07:20:28.537Z,31.27
2019-03-29T07:23:11.830Z,31.45
2019-03-29T07:25:44.666Z,31.14
2019-03-29T07:28:19.985Z,30.58
2019-03-29T07:30:52.704Z,30.57
2019-03-29T07:33:29.500Z,30.21
2019-03-29T07:36:02.197Z,29.58
2019-03-29T07:38:41.118Z,29.82
2019-03-29T07:41:30.733Z,29.35
2019-03-29T07:43:51.519Z,28.26
2019-03-29T07:46:24.356Z,28.07
2019-03-29T07:48:57.052Z,27.73
2019-03-29T07:51:29.817Z,27.70
2019-03-29T07:54:12.651Z,27.60
2019-03-29T07:56:45.337Z,26.60
2019-03-29T07:59:18.104Z,26.28
2019-03-29T08:01:51.041Z,26.04
2019-03-29T08:04:30.986Z,24.68
2019-03-29T08:07:03.728Z,25.01
2019-03-29T08:09:50.024Z,25.01
2019-03-29T08:12:23.937Z,24.29
2019-03-29T08:14:56.803Z,24.79
2019-03-29T08:17:29.489Z,24.27
2019-03-29T08:20:36.582Z,24.50
2019-03-29T08:22:36.299Z,23.65
2019-03-29T08:25:13.107Z,23.01
2019-03-29T08:27:45.676Z,22.42
2019-03-29T08:30:21.527Z,20.80
2019-03-29T08:32:54.248Z,22.10
2019-03-29T08:35:37.516Z,22.36
2019-03-29T08:38:10.120Z,22.18
2019-03-29T08:40:45.215Z,22.01
2019-03-29T08:43:16.902Z,20.37
2019-03-29T08:45:57.559Z,20.75
2019-03-29T08:48:30.049Z,19.90
2019-03-29T08:51:02.650Z,20.13
2019-03-29T08:53:35.056Z,19.26
2019-03-29T08:56:19.214Z,18.37
2019-03-29T08:58:55.368Z,18.94
2019-03-29T09:01:28.067Z,19.18
2019-03-29T09:04:05.702Z,19.55
2019-03-29T09:06:37.584Z,19.93
2019-03-29T09:09:12.502Z,20.85
2019-03-29T09:11:45.349Z,19.39
2019-03-29T09:14:18.539Z,19.64
2019-03-29T09:16:54.043Z,19.80
2019-03-29T09:19:26.700Z,20.27
2019-03-29T09:22:08.338Z,19.62
2019-03-29T09:24:42.177Z,19.60
2019-03-29T09:27:18.279Z,18.77
2019-03-29T09:29:50.702Z,18.16
2019-03-29T09:32:27.544Z,19.19
2019-03-29T09:35:00.709Z,18.01
2019-03-29T09:37:33.784Z,17.03
2019-03-29T09:40:08.146Z,16.52
2019-03-29T09:43:06.834Z,15.97
2019-03-29T09:45:27.696Z,15.41
2019-03-29T09:48:00.398Z,17.94
2019-03-29T09:50:33.141Z,18.55
2019-03-29T09:53:12.006Z,18.02
2019-03-29T09:55:45.910Z,19.03
2019-03-29T09:58:18.433Z,19.49
2019-03-29T10:00:51.197Z,17.81
2019-03-29T10:03:27.460Z,17.84
2019-03-29T10:06:00.577Z,18.75
2019-03-29T10:08:43.871Z,18.40
2019-03-29T10:11:16.432Z,18.45
2019-03-29T10:13:50.182Z,17.58
2019-03-29T10:16:25.937Z,17.33
2019-03-29T10:18:58.961Z,16.83
2019-03-29T10:21:34.056Z,16.36
2019-03-29T10:24:12.252Z,16.72
2019-03-29T10:26:45.738Z,17.32
2019-03-29T10:29:18.343Z,16.82
2019-03-29T10:31:51.362Z,15.60
2019-03-29T10:34:33.092Z,14.72
2019-03-29T10:37:05.903Z,15.22
2019-03-29T10:39:43.545Z,14.78
2019-03-29T10:42:16.941Z,16.02
2019-03-29T10:44:51.008Z,14.95
2019-03-29T10:47:42.070Z,14.72
2019-03-29T10:50:03.560Z,14.23
2019-03-29T10:52:36.542Z,14.98
2019-03-29T10:55:12.075Z,15.25
2019-03-29T10:57:44.998Z,15.04
2019-03-29T11:00:39.506Z,14.38
2019-03-29T11:03:12.895Z,13.84
2019-03-29T11:05:52.077Z,14.59
2019-03-29T11:08:26.015Z,14.12
2019-03-29T11:10:59.272Z,14.93
2019-03-29T11:13:31.914Z,16.14
2019-03-29T11:16:04.992Z,15.97
2019-03-29T11:18:38.105Z,15.94
2019-03-29T11:21:11.221Z,15.77
2019-03-29T11:23:43.821Z,15.49
2019-03-29T11:26:19.728Z,15.50
2019-03-29T11:28:52.981Z,16.08
2019-03-29T11:31:25.960Z,15.28
2019-03-29T11:33:58.680Z,14.46
2019-03-29T11:36:33.148Z,15.55
2019-03-29T11:39:07.342Z,15.01
2019-03-29T11:41:42.790Z,14.98
2019-03-29T11:44:18.575Z,15.10
2019-03-29T11:47:00.131Z,15.79
2019-03-29T11:49:33.513Z,16.79
2019-03-29T11:52:06.222Z,17.72
2019-03-29T11:54:39.964Z,18.20
2019-03-29T11:57:20.249Z,18.36
2019-03-29T11:59:53.091Z,17.67
2019-03-29T12:02:31.574Z,17.91
2019-03-29T12:05:01.601Z,18.30
2019-03-29T12:07:37.167Z,18.36
2019-03-29T12:10:10.483Z,18.30
2019-03-29T12:12:54.357Z,18.42
2019-03-29T12:15:27.407Z,17.86
2019-03-29T12:18:00.718Z,17.95
2019-03-29T12:20:33.579Z,17.28
2019-03-29T12:23:06.619Z,18.04
2019-03-29T12:25:39.397Z,17.20
2019-03-29T12:28:15.523Z,16.66
2019-03-29T12:30:49.278Z,16.76
2019-03-29T12:33:25.165Z,17.22
2019-03-29T12:35:57.891Z,17.80
2019-03-29T12:38:36.937Z,17.26
2019-03-29T12:41:10.040Z,17.24
2019-03-29T12:43:55.701Z,17.55
2019-03-29T12:46:27.281Z,18.00
2019-03-29T12:49:00.695Z,17.65
2019-03-29T12:51:33.499Z,17.00
2019-03-29T12:54:12.037Z,18.63
2019-03-29T12:56:47.896Z,17.35
2019-03-29T12:59:24.127Z,16.90
2019-03-29T13:01:57.003Z,15.90
2019-03-29T13:04:29.924Z,15.08
2019-03-29T13:07:03.506Z,15.81
2019-03-29T13:09:41.162Z,15.77
2019-03-29T13:12:14.230Z,16.11
2019-03-29T13:14:46.721Z,15.86
2019-03-29T13:17:19.431Z,16.18
2019-03-29T13:20:03.566Z,17.05
2019-03-29T13:22:36.741Z,17.21
2019-03-29T13:25:12.529Z,17.77
2019-03-29T13:27:45.227Z,17.69
2019-03-29T13:30:21.382Z,17.87
2019-03-29T13:32:54.995Z,16.60
2019-03-29T13:35:34.209Z,16.44
2019-03-29T13:38:08.126Z,16.11
2019-03-29T13:40:43.930Z,16.41
2019-03-29T13:43:17.177Z,16.64
2019-03-29T13:45:54.120Z,16.87
2019-03-29T13:48:27.167Z,16.68
2019-03-29T13:51:00.014Z,16.54
2019-03-29T13:53:33.154Z,17.23
2019-03-29T13:56:30.688Z,17.47
2019-03-29T13:59:03.894Z,16.61
2019-03-29T14:01:38.289Z,16.71
2019-03-29T14:04:11.053Z,16.79
2019-03-29T14:06:44.139Z,17.48
2019-03-29T14:09:16.838Z,17.21
2019-03-29T14:11:51.300Z,16.97
2019-03-29T14:14:37.649Z,17.22
2019-03-29T14:17:00.444Z,17.11
2019-03-29T14:19:34.001Z,17.23
2019-03-29T14:22:07.020Z,17.37
2019-03-29T14:24:39.576Z,17.34
2019-03-29T14:27:18.504Z,18.08
2019-03-29T14:30:03.524Z,19.28
2019-03-29T14:32:26.916Z,18.54
2019-03-29T14:34:59.919Z,18.28
2019-03-29T14:37:40.507Z,18.57
2019-03-29T14:40:15.882Z,19.05
2019-03-29T14:42:50.219Z,19.67
2019-03-29T14:45:23.181Z,19.76
2019-03-29T14:48:04.675Z,20.15
2019-03-29T14:50:37.718Z,19.95
2019-03-29T14:53:14.593Z,20.23
2019-03-29T14:55:47.445Z,20.67
2019-03-29T14:58:23.436Z,20.30
2019-03-29T15:00:55.921Z,19.94
2019-03-29T15:03:32.993Z,20.30
2019-03-29T15:06:06.444Z,20.56
2019-03-29T15:08:42.000Z,20.17
2019-03-29T15:11:22.197Z,20.58
2019-03-29T15:13:49.341Z,20.56
2019-03-29T15:16:23.342Z,19.66
2019-03-29T15:18:56.405Z,21.23
2019-03-29T15:21:29.341Z,21.47
2019-03-29T15:24:09.235Z,21.58
2019-03-29T15:26:42.081Z,21.70
2019-03-29T15:29:18.299Z,21.53
2019-03-29T15:31:56.229Z,22.04
2019-03-29T15:34:31.765Z,22.26
2019-03-29T15:37:05.428Z,21.84
2019-03-29T15:39:44.385Z,21.88
2019-03-29T15:42:20.337Z,21.89
2019-03-29T15:44:51.424Z,22.84
2019-03-29T15:47:24.148Z,23.85
2019-03-29T15:50:13.322Z,24.24
2019-03-29T15:52:45.964Z,24.59
2019-03-29T15:55:19.156Z,24.12
2019-03-29T15:57:52.502Z,23.87
2019-03-29T16:00:25.207Z,24.10
2019-03-29T16:02:57.670Z,24.76
2019-03-29T16:05:30.283Z,25.17
2019-03-29T16:08:03.535Z,24.89
2019-03-29T16:10:46.345Z,25.23
2019-03-29T16:13:19.112Z,26.15
2019-03-29T16:15:54.662Z,26.40
2019-03-29T16:18:27.361Z,26.35
2019-03-29T16:21:00.798Z,26.39
2019-03-29T16:23:34.776Z,26.83
2019-03-29T16:26:17.050Z,26.64
2019-03-29T16:28:50.877Z,27.49
2019-03-29T16:31:26.781Z,27.94
2019-03-29T16:34:00.102Z,28.11
2019-03-29T16:36:38.954Z,28.11
2019-03-29T16:39:12.382Z,28.44
2019-03-29T16:41:45.049Z,28.62
2019-03-29T16:44:19.187Z,28.15
2019-03-29T16:46:52.374Z,28.40
2019-03-29T16:49:26.187Z,28.95
2019-03-29T16:52:14.153Z,28.81
2019-03-29T16:54:46.919Z,28.87
2019-03-29T16:57:20.113Z,28.62
2019-03-29T16:59:52.750Z,28.89
2019-03-29T17:02:25.842Z,29.24
2019-03-29T17:04:58.664Z,29.89
2019-03-29T17:07:40.340Z,30.53
2019-03-29T17:10:13.112Z,31.06
2019-03-29T17:12:52.118Z,31.29
2019-03-29T17:15:24.078Z,31.50
2019-03-29T17:17:57.229Z,31.83
2019-03-29T17:20:30.522Z,32.22
2019-03-29T17:23:11.498Z,32.54
2019-03-29T17:25:44.516Z,32.84
2019-03-29T17:28:17.792Z,33.05
2019-03-29T17:31:02.166Z,33.23
2019-03-29T17:33:35.115Z,33.56
2019-03-29T17:36:07.900Z,33.74
2019-03-29T17:38:42.114Z,33.94
2019-03-29T17:41:15.205Z,34.04
2019-03-29T17:43:51.034Z,34.53
2019-03-29T17:46:26.592Z,34.58
2019-03-29T17:48:59.331Z,34.66
2019-03-29T17:51:32.410Z,34.96
2019-03-29T17:54:16.795Z,35.13
2019-03-29T17:56:49.724Z,35.41
2019-03-29T17:59:25.706Z,35.89
2019-03-29T18:02:09.297Z,36.21
2019-03-29T18:04:34.327Z,36.48
2019-03-29T18:07:08.052Z,36.71
2019-03-29T18:09:41.022Z,37.34
2019-03-29T18:12:14.150Z,38.30
2019-03-29T18:14:57.367Z,39.05
2019-03-29T18:17:30.096Z,39.35
2019-03-29T18:20:02.910Z,39.89
2019-03-29T18:22:35.905Z,40.49
2019-03-29T18:25:09.634Z,40.78
2019-03-29T18:27:42.684Z,41.09
2019-03-29T18:30:37.669Z,41.49
2019-03-29T18:33:10.279Z,41.83
2019-03-29T18:35:43.182Z,42.83
2019-03-29T18:38:17.388Z,43.37
2019-03-29T18:40:49.972Z,44.18
2019-03-29T18:43:23.235Z,44.92
2019-03-29T18:45:56.332Z,45.72
2019-03-29T18:48:29.741Z,46.85
2019-03-29T18:51:04.135Z,47.46
2019-03-29T18:53:38.421Z,47.62
2019-03-29T18:56:12.003Z,48.26
2019-03-29T18:58:45.327Z,48.42
2019-03-29T19:01:25.744Z,48.99
2019-03-29T19:03:58.780Z,49.34
2019-03-29T19:06:32.065Z,49.53
2019-03-29T19:09:05.790Z,49.75
2019-03-29T19:11:45.413Z,50.08
2019-03-29T19:14:18.725Z,50.38
2019-03-29T19:16:59.832Z,50.78
2019-03-29T19:19:32.709Z,51.07
2019-03-29T19:22:07.416Z,51.41
2019-03-29T19:24:40.231Z,51.86
2019-03-29T19:27:16.356Z,51.74
2019-03-29T19:29:49.611Z,51.51
2019-03-29T19:32:27.275Z,51.30
2019-03-29T19:35:01.775Z,51.39
2019-03-29T19:37:38.247Z,51.63
2019-03-29T19:40:12.292Z,52.09
2019-03-29T19:42:49.155Z,52.26
2019-03-29T19:45:22.242Z,52.21
2019-03-29T19:47:58.989Z,52.01
2019-03-29T19:50:32.014Z,51.84
2019-03-29T19:53:08.157Z,51.43
2019-03-29T19:55:41.687Z,50.88
2019-03-29T19:58:18.143Z,50.53
2019-03-29T20:00:52.068Z,50.79
2019-03-29T20:03:29.393Z,50.38
2019-03-29T20:06:02.026Z,50.02
2019-03-29T20:08:42.380Z,49.21
2019-03-29T20:11:15.139Z,48.22
2019-03-29T20:13:50.691Z,47.69
2019-03-29T20:16:23.304Z,47.81
2019-03-29T20:19:04.064Z,48.58
2019-03-29T20:21:36.903Z,48.84
2019-03-29T20:24:13.051Z,49.14
2019-03-29T20:26:45.883Z,49.48
2019-03-29T20:29:19.078Z,49.44
2019-03-29T20:31:51.660Z,49.77
2019-03-29T20:34:32.330Z,50.56
2019-03-29T20:37:08.932Z,51.18
2019-03-29T20:39:41.381Z,51.82
2019-03-29T20:42:14.471Z,52.23
2019-03-29T20:44:50.723Z,52.81
2019-03-29T20:47:23.360Z,53.20
2019-03-29T20:50:07.303Z,54.17
2019-03-29T20:52:40.026Z,54.95
2019-03-29T20:55:16.599Z,55.19
2019-03-29T20:57:49.612Z,55.28
2019-03-29T21:00:27.061Z,55.22
2019-03-29T21:02:59.817Z,55.41
2019-03-29T21:05:32.680Z,55.38
2019-03-29T21:08:05.484Z,55.74
2019-03-29T21:10:54.954Z,55.87
2019-03-29T21:13:17.061Z,55.96
2019-03-29T21:15:53.846Z,56.17
2019-03-29T21:18:26.614Z,56.45
2019-03-29T21:21:02.385Z,56.77
2019-03-29T21:23:35.129Z,56.90
2019-03-29T21:26:07.869Z,57.02
2019-03-29T21:28:41.341Z,57.41
2019-03-29T21:31:14.164Z,57.31
2019-03-29T21:33:46.991Z,57.60
2019-03-29T21:36:19.617Z,58.06
2019-03-29T21:38:54.098Z,58.22
2019-03-29T21:41:47.460Z,58.20
2019-03-29T21:44:20.864Z,58.35
2019-03-29T21:46:55.052Z,58.51
2019-03-29T21:49:28.009Z,59.23
2019-03-29T21:52:00.797Z,59.67
2019-03-29T21:54:33.557Z,60.07
2019-03-29T21:57:06.493Z,60.95
2019-03-29T21:59:39.167Z,61.26
2019-03-29T22:02:12.161Z,61.20
2019-03-29T22:04:44.702Z,61.34
2019-03-29T22:07:17.255Z,61.78
2019-03-29T22:09:50.606Z,62.04
2019-03-29T22:12:23.987Z,62.31
2019-03-29T22:14:56.920Z,62.50
2019-03-29T22:17:29.755Z,62.78
2019-03-29T22:20:21.301Z,63.28
2019-03-29T22:22:54.102Z,62.86
2019-03-29T22:25:26.971Z,63.24
2019-03-29T22:27:59.863Z,63.44
2019-03-29T22:30:32.645Z,63.93
2019-03-29T22:33:05.361Z,64.15
2019-03-29T22:35:39.039Z,64.31
2019-03-29T22:38:12.126Z,64.19
2019-03-29T22:40:45.269Z,64.08
2019-03-29T22:43:18.313Z,64.21
2019-03-29T22:45:51.126Z,65.20
2019-03-29T22:48:23.915Z,66.18
2019-03-29T22:51:22.391Z,66.87
2019-03-29T22:53:55.201Z,66.53
2019-03-29T22:56:27.832Z,66.55
2019-03-29T22:59:00.339Z,65.99
2019-03-29T23:01:35.925Z,65.97
2019-03-29T23:04:08.361Z,66.36
2019-03-29T23:06:40.812Z,66.65
2019-03-29T23:09:13.776Z,67.56
2019-03-29T23:11:47.565Z,66.86
2019-03-29T23:14:20.321Z,66.19
2019-03-29T23:16:53.107Z,66.39
2019-03-29T23:19:26.062Z,66.78
2019-03-29T23:21:58.681Z,67.18
2019-03-29T23:24:31.305Z,67.58
2019-03-29T23:27:04.041Z,68.41
2019-03-29T23:29:36.611Z,68.78
2019-03-29T23:32:10.439Z,68.86
2019-03-29T23:34:43.108Z,69.29
2019-03-29T23:37:15.565Z,69.40
2019-03-29T23:39:48.119Z,69.51
2019-03-29T23:42:21.156Z,69.46
2019-03-29T23:44:53.556Z,69.20
2019-03-29T23:47:26.433Z,69.68
2019-03-29T23:49:59.788Z,70.12
2019-03-29T23:52:32.335Z,70.53
2019-03-29T23:55:04.957Z,71.56
2019-03-29T23:57:37.878Z,72.65
